Time;durP1;ratioP1;P1;durP2;ratioP2;P2;SDS_P1;SDS_P2;PMS_P1;PMS_P2;Temp;Humidity;BMP_temperature;BMP_pressure;BME280_temperature;BME280_humidity;BME280_pressure;Samples;Min_cycle;Max_cycle;Signal;HPM_P1;HPM_P2
2021/04/05 00:00:27;;;;;;;5.38;1.30;;;7.70;99.90;;;;;;5094833;28;20458;-61
2021/04/05 00:02:55;;;;;;;2.28;1.10;;;7.70;99.90;;;;;;5093881;28;20434;-61
2021/04/05 00:05:24;;;;;;;2.00;1.10;;;7.60;99.90;;;;;;5092481;28;20725;-60
2021/04/05 00:07:50;;;;;;;4.07;1.10;;;7.60;99.90;;;;;;5093552;28;20433;-60
2021/04/05 00:10:21;;;;;;;1.80;1.00;;;7.60;99.90;;;;;;5092647;28;20429;-61
2021/04/05 00:12:49;;;;;;;6.03;1.20;;;7.50;99.90;;;;;;5093466;28;20519;-60
2021/04/05 00:15:16;;;;;;;2.37;1.10;;;7.60;99.90;;;;;;5093473;28;20789;-60
2021/04/05 00:17:43;;;;;;;2.90;1.00;;;7.60;99.90;;;;;;5094450;28;20847;-61
2021/04/05 00:20:12;;;;;;;1.77;1.00;;;7.60;99.90;;;;;;5094948;28;20450;-60
2021/04/05 00:22:40;;;;;;;2.90;1.20;;;7.70;99.90;;;;;;5094486;28;20448;-61
2021/04/05 00:25:09;;;;;;;1.80;1.00;;;7.70;99.90;;;;;;5094162;28;20418;-60
2021/04/05 00:27:35;;;;;;;2.50;1.00;;;7.70;99.90;;;;;;5093971;28;20473;-60
2021/04/05 00:30:06;;;;;;;1.95;0.90;;;7.60;99.90;;;;;;5093742;28;20643;-60
2021/04/05 00:32:32;;;;;;;1.88;1.00;;;7.70;99.90;;;;;;5094114;28;20448;-60
2021/04/05 00:34:59;;;;;;;2.13;0.90;;;7.70;99.90;;;;;;5094403;28;20457;-61
2021/04/05 00:37:25;;;;;;;1.43;0.90;;;7.70;99.90;;;;;;5093529;28;20764;-60
2021/04/05 00:39:51;;;;;;;1.70;0.90;;;7.80;99.90;;;;;;5093085;28;20822;-60
2021/04/05 00:42:18;;;;;;;2.20;0.90;;;7.90;99.90;;;;;;5093474;28;20457;-61
2021/04/05 00:44:45;;;;;;;3.08;0.90;;;8.30;99.90;;;;;;5093030;28;20889;-61
2021/04/05 00:47:14;;;;;;;1.70;0.80;;;8.40;99.90;;;;;;5093842;28;20575;-61
2021/04/05 00:49:41;;;;;;;1.85;0.80;;;8.50;99.90;;;;;;5093899;28;20425;-61
2021/04/05 00:52:08;;;;;;;1.40;0.80;;;8.60;99.90;;;;;;5094498;28;20436;-61
2021/04/05 00:54:34;;;;;;;3.20;1.03;;;8.70;99.90;;;;;;5094131;28;20798;-60
2021/04/05 00:57:01;;;;;;;2.28;0.70;;;8.80;99.90;;;;;;5094770;28;20473;-61
2021/04/05 00:59:28;;;;;;;2.60;0.90;;;8.70;99.90;;;;;;5094653;28;20491;-59
2021/04/05 01:01:54;;;;;;;2.90;0.80;;;8.60;99.90;;;;;;5094539;28;20607;-59
2021/04/05 01:04:21;;;;;;;1.50;0.80;;;8.50;99.90;;;;;;5094135;28;20425;-58
2021/04/05 01:06:48;;;;;;;4.15;0.80;;;8.40;99.90;;;;;;5094168;28;20445;-59
2021/04/05 01:09:14;;;;;;;2.70;0.90;;;8.30;99.90;;;;;;5094152;28;20486;-61
2021/04/05 01:11:41;;;;;;;1.42;0.90;;;8.20;99.90;;;;;;5094616;28;20520;-61
2021/04/05 01:14:07;;;;;;;2.47;0.80;;;8.00;99.90;;;;;;5094360;28;20853;-60
2021/04/05 01:16:34;;;;;;;2.70;0.90;;;7.70;99.90;;;;;;5096810;28;20938;-60
2021/04/05 01:19:01;;;;;;;1.98;0.90;;;7.50;99.90;;;;;;5098321;28;20449;-61
2021/04/05 01:21:29;;;;;;;1.80;0.90;;;7.40;99.90;;;;;;5097963;28;20729;-60
2021/04/05 01:23:57;;;;;;;2.80;0.90;;;7.30;99.90;;;;;;5098047;28;21115;-60
2021/04/05 01:26:23;;;;;;;2.53;0.80;;;7.20;99.90;;;;;;5097631;28;20457;-60
2021/04/05 01:28:50;;;;;;;2.50;0.90;;;7.30;99.90;;;;;;5097739;28;20509;-60
2021/04/05 01:31:16;;;;;;;2.80;0.90;;;7.60;99.90;;;;;;5097874;28;20460;-60
2021/04/05 01:33:44;;;;;;;3.30;1.20;;;8.10;99.90;;;;;;5097386;28;20789;-60
2021/04/05 01:36:12;;;;;;;2.75;0.90;;;8.40;99.90;;;;;;5097434;28;20429;-60
2021/04/05 01:38:41;;;;;;;1.60;0.90;;;8.50;99.90;;;;;;5098098;28;20463;-60
2021/04/05 01:41:11;;;;;;;1.52;0.90;;;8.30;99.90;;;;;;5097249;28;20460;-60
2021/04/05 01:43:38;;;;;;;1.40;0.90;;;8.10;99.90;;;;;;5097547;28;20425;-60
2021/04/05 01:46:06;;;;;;;3.13;0.90;;;7.90;99.90;;;;;;5097435;28;20450;-60
2021/04/05 01:48:33;;;;;;;1.80;1.00;;;7.80;99.90;;;;;;5097378;28;20435;-60
2021/04/05 01:51:03;;;;;;;1.60;0.90;;;7.60;99.90;;;;;;5097410;28;20777;-61
2021/04/05 01:53:29;;;;;;;1.83;0.77;;;7.60;99.90;;;;;;5097232;28;20418;-60
2021/04/05 01:55:58;;;;;;;2.83;0.80;;;7.50;99.90;;;;;;5097262;28;20462;-60
2021/04/05 01:58:26;;;;;;;2.50;0.90;;;7.40;99.90;;;;;;5097942;28;20517;-60
2021/04/05 02:00:53;;;;;;;2.30;0.80;;;7.00;99.90;;;;;;5096617;28;20506;-60
2021/04/05 02:03:20;;;;;;;1.60;0.90;;;7.00;99.90;;;;;;5096924;28;20426;-60
2021/04/05 02:05:51;;;;;;;1.88;1.00;;;6.90;99.90;;;;;;5097332;28;20496;-60
2021/04/05 02:08:22;;;;;;;2.20;0.80;;;6.80;99.90;;;;;;5097407;28;20472;-60
2021/04/05 02:10:49;;;;;;;1.38;0.80;;;6.70;99.90;;;;;;5097363;28;20698;-60
2021/04/05 02:13:17;;;;;;;2.28;0.90;;;6.80;99.90;;;;;;5097351;28;20422;-60
2021/04/05 02:15:45;;;;;;;2.80;0.90;;;6.80;99.90;;;;;;5097470;28;20505;-60
2021/04/05 02:18:12;;;;;;;2.35;0.90;;;6.70;99.90;;;;;;5097157;28;20499;-60
2021/04/05 02:20:40;;;;;;;1.48;0.90;;;6.60;99.90;;;;;;5096684;28;20418;-60
2021/04/05 02:23:06;;;;;;;3.40;1.00;;;6.60;99.90;;;;;;5097192;28;20429;-60
2021/04/05 02:25:34;;;;;;;2.70;0.80;;;6.50;99.90;;;;;;5096765;28;20438;-59
2021/04/05 02:28:04;;;;;;;3.40;1.00;;;6.50;99.90;;;;;;5095964;28;20461;-59
2021/04/05 02:30:31;;;;;;;1.80;0.90;;;6.50;99.90;;;;;;5096674;28;20837;-60
2021/04/05 02:33:00;;;;;;;1.58;0.90;;;6.60;99.90;;;;;;5096924;28;20516;-60
2021/04/05 02:35:29;;;;;;;2.20;0.90;;;6.60;99.90;;;;;;5097035;28;20445;-60
2021/04/05 02:37:56;;;;;;;2.42;0.80;;;6.50;99.90;;;;;;5096869;28;20865;-60
2021/04/05 02:40:24;;;;;;;2.10;0.90;;;6.50;99.90;;;;;;5096943;28;20706;-60
2021/04/05 02:42:53;;;;;;;2.10;0.90;;;6.40;99.90;;;;;;5096683;28;20841;-59
2021/04/05 02:45:21;;;;;;;2.72;0.90;;;6.40;99.90;;;;;;5096561;28;20475;-60
2021/04/05 02:47:49;;;;;;;1.60;0.70;;;6.30;99.90;;;;;;5096336;28;20434;-60
2021/04/05 02:50:17;;;;;;;1.70;0.90;;;6.30;99.90;;;;;;5096272;28;20936;-60
2021/04/05 02:52:44;;;;;;;1.30;0.90;;;6.20;99.90;;;;;;5096862;28;20461;-60
2021/04/05 02:55:12;;;;;;;1.50;0.80;;;6.20;99.90;;;;;;5095096;28;20423;-60
2021/04/05 02:57:39;;;;;;;2.40;0.85;;;6.30;99.90;;;;;;5094594;28;20533;-59
2021/04/05 03:00:09;;;;;;;1.85;0.90;;;6.70;99.90;;;;;;5094939;28;20508;-59
2021/04/05 03:02:36;;;;;;;3.30;0.90;;;7.00;99.90;;;;;;5094843;28;20476;-60
2021/04/05 03:05:05;;;;;;;2.85;0.90;;;7.30;99.90;;;;;;5094637;28;20468;-60
2021/04/05 03:07:33;;;;;;;1.88;0.80;;;7.60;99.90;;;;;;5094965;28;20422;-60
2021/04/05 03:09:59;;;;;;;1.30;0.83;;;7.70;99.90;;;;;;5095531;28;20959;-61
2021/04/05 03:12:27;;;;;;;2.00;0.80;;;7.60;99.90;;;;;;5096392;28;20429;-60
2021/04/05 03:14:55;;;;;;;2.00;0.80;;;7.40;99.90;;;;;;5096053;28;20856;-60
2021/04/05 03:17:22;;;;;;;2.90;1.00;;;7.30;99.90;;;;;;5095898;28;20532;-60
2021/04/05 03:19:49;;;;;;;2.15;0.88;;;7.10;99.90;;;;;;5095941;28;20837;-60
2021/04/05 03:22:18;;;;;;;2.80;0.90;;;7.00;99.90;;;;;;5095908;28;20433;-60
2021/04/05 03:24:45;;;;;;;1.40;0.85;;;7.10;99.90;;;;;;5096378;28;20444;-60
2021/04/05 03:27:12;;;;;;;1.90;0.80;;;7.00;99.90;;;;;;5095559;28;20441;-60
2021/04/05 03:29:40;;;;;;;2.80;0.80;;;7.00;99.90;;;;;;5095949;28;20472;-60
2021/04/05 03:32:09;;;;;;;1.00;0.80;;;7.20;99.90;;;;;;5095663;28;20520;-59
2021/04/05 03:34:39;;;;;;;1.88;0.80;;;7.10;99.90;;;;;;5095468;28;20914;-59
2021/04/05 03:37:09;;;;;;;2.45;1.00;;;7.10;99.90;;;;;;5095727;28;20889;-60
2021/04/05 03:39:36;;;;;;;2.38;1.00;;;6.90;99.90;;;;;;5095560;28;20417;-59
2021/04/05 03:42:11;;;;;;;3.63;0.90;;;6.80;99.90;;;;;;5095468;28;20430;-60
2021/04/05 03:44:45;;;;;;;2.60;0.90;;;6.50;99.90;;;;;;5095165;28;20538;-59
2021/04/05 03:47:19;;;;;;;3.55;1.00;;;6.30;99.90;;;;;;5095311;28;20852;-60
2021/04/05 03:49:50;;;;;;;2.13;1.00;;;6.40;99.90;;;;;;5095042;28;20729;-61
2021/04/05 03:52:25;;;;;;;2.58;1.00;;;6.30;99.90;;;;;;5095376;28;20729;-60
2021/04/05 03:54:58;;;;;;;1.73;0.90;;;6.40;99.90;;;;;;5095093;28;20818;-60
2021/04/05 03:57:32;;;;;;;1.37;0.90;;;6.40;99.90;;;;;;5095316;28;20627;-59
2021/04/05 04:00:07;;;;;;;3.40;0.90;;;6.40;99.90;;;;;;5095149;28;20869;-59
2021/04/05 04:02:42;;;;;;;1.70;0.90;;;6.50;99.90;;;;;;5095143;28;20888;-60
2021/04/05 04:05:15;;;;;;;3.08;1.00;;;6.50;99.90;;;;;;5094955;28;20422;-60
2021/04/05 04:07:46;;;;;;;3.30;1.00;;;6.50;99.90;;;;;;5095028;28;20430;-60
2021/04/05 04:10:15;;;;;;;1.85;0.90;;;6.40;99.90;;;;;;5095173;28;20772;-59
2021/04/05 04:12:47;;;;;;;1.80;1.20;;;6.40;99.90;;;;;;5094875;28;20425;-60
2021/04/05 04:15:15;;;;;;;1.55;0.80;;;6.40;99.90;;;;;;5094948;28;20728;-60
2021/04/05 04:17:44;;;;;;;1.60;0.90;;;6.50;99.90;;;;;;5095138;28;20469;-60
2021/04/05 04:20:13;;;;;;;2.28;0.90;;;6.40;99.90;;;;;;5094917;28;20790;-60
2021/04/05 04:22:40;;;;;;;3.67;1.38;;;6.40;99.90;;;;;;5094248;28;20432;-59
2021/04/05 04:25:08;;;;;;;2.50;0.90;;;6.30;99.90;;;;;;5093826;28;20422;-60
2021/04/05 04:27:35;;;;;;;1.95;1.00;;;6.20;99.90;;;;;;5093949;28;20486;-60
2021/04/05 04:30:06;;;;;;;3.00;1.10;;;6.10;99.90;;;;;;5093272;28;20508;-59
2021/04/05 04:32:33;;;;;;;3.75;0.90;;;6.00;99.90;;;;;;5093188;28;20461;-59
2021/04/05 04:35:00;;;;;;;3.40;0.90;;;5.90;99.90;;;;;;5093956;28;20848;-59
2021/04/05 04:37:26;;;;;;;1.40;0.80;;;6.00;99.90;;;;;;5093749;28;21225;-59
2021/04/05 04:39:53;;;;;;;1.90;0.90;;;6.00;99.90;;;;;;5093581;28;20454;-60
2021/04/05 04:42:19;;;;;;;2.50;0.93;;;5.90;99.90;;;;;;5093544;28;20937;-60
2021/04/05 04:44:46;;;;;;;3.13;1.00;;;5.90;99.90;;;;;;5092789;28;20418;-60
2021/04/05 04:47:13;;;;;;;2.03;0.90;;;5.80;99.90;;;;;;5092889;28;20518;-60
2021/04/05 04:49:39;;;;;;;2.50;1.10;;;5.90;99.90;;;;;;5092723;28;20457;-60
2021/04/05 04:52:07;;;;;;;1.80;0.90;;;5.90;99.90;;;;;;5096480;28;20472;-60
2021/04/05 04:54:33;;;;;;;2.30;0.80;;;5.90;99.90;;;;;;5098174;28;20464;-60
2021/04/05 04:57:00;;;;;;;1.90;0.80;;;6.00;99.90;;;;;;5098261;28;20473;-60
2021/04/05 04:59:27;;;;;;;2.55;0.90;;;6.00;99.90;;;;;;5098795;28;20506;-59
2021/04/05 05:01:55;;;;;;;3.70;0.90;;;6.10;99.90;;;;;;5098394;28;20520;-59
2021/04/05 05:04:26;;;;;;;3.27;1.00;;;6.10;99.90;;;;;;5098377;28;20441;-60
2021/04/05 05:06:55;;;;;;;2.40;0.90;;;6.10;99.90;;;;;;5098842;28;20837;-60
2021/04/05 05:09:22;;;;;;;4.40;1.00;;;6.10;99.90;;;;;;5098595;28;20428;-59
2021/04/05 05:11:48;;;;;;;1.60;0.80;;;6.10;99.90;;;;;;5098132;28;20468;-59
2021/04/05 05:14:16;;;;;;;1.50;0.80;;;6.10;99.90;;;;;;5097567;28;20417;-59
2021/04/05 05:16:43;;;;;;;1.50;0.82;;;6.10;99.90;;;;;;5097954;28;20884;-59
2021/04/05 05:19:10;;;;;;;1.80;0.80;;;6.10;99.90;;;;;;5098467;28;20418;-60
2021/04/05 05:21:43;;;;;;;2.10;0.80;;;6.00;99.90;;;;;;5098114;28;20461;-59
2021/04/05 05:24:15;;;;;;;2.10;0.90;;;6.00;99.90;;;;;;5098068;28;20458;-60
2021/04/05 05:26:43;;;;;;;1.90;0.85;;;6.10;99.90;;;;;;5098092;28;20458;-59
2021/04/05 05:29:11;;;;;;;2.50;0.90;;;6.10;99.90;;;;;;5098517;28;20446;-60
2021/04/05 05:31:40;;;;;;;2.20;0.90;;;6.10;99.90;;;;;;5098174;28;20788;-60
2021/04/05 05:34:08;;;;;;;2.58;0.90;;;6.10;99.90;;;;;;5097735;28;20476;-60
2021/04/05 05:36:37;;;;;;;1.83;0.80;;;6.10;99.90;;;;;;5097398;28;20480;-60
2021/04/05 05:39:04;;;;;;;1.40;0.80;;;6.20;99.90;;;;;;5097809;28;20501;-59
2021/04/05 05:41:52;;;;;;;1.75;0.80;;;6.30;99.90;;;;;;5097582;28;20450;-59
2021/04/05 05:44:25;;;;;;;1.58;0.80;;;6.30;99.90;;;;;;5097893;28;20424;-60
2021/04/05 05:46:57;;;;;;;1.90;0.90;;;6.40;99.90;;;;;;5097541;28;20433;-59
2021/04/05 05:49:34;;;;;;;2.00;1.00;;;6.40;99.90;;;;;;5097219;28;20457;-60
2021/04/05 05:52:12;;;;;;;2.70;1.30;;;6.40;99.90;;;;;;5096570;28;20479;-59
2021/04/05 05:54:58;;;;;;;1.80;0.73;;;6.60;99.90;;;;;;5097144;28;20468;-59
2021/04/05 05:57:34;;;;;;;1.40;0.80;;;6.80;99.90;;;;;;5097123;28;20438;-58
2021/04/05 06:00:06;;;;;;;2.45;0.93;;;7.10;99.90;;;;;;5097274;28;20418;-59
2021/04/05 06:02:56;;;;;;;1.70;0.77;;;7.50;99.90;;;;;;5095905;28;20429;-58
2021/04/05 06:05:38;;;;;;;3.28;0.70;;;7.70;99.90;;;;;;5096898;28;20509;-59
2021/04/05 06:08:28;;;;;;;1.30;0.80;;;7.70;99.90;;;;;;5097007;28;20425;-59
2021/04/05 06:11:08;;;;;;;1.73;0.70;;;7.70;99.90;;;;;;5097093;28;20417;-59
2021/04/05 06:13:44;;;;;;;1.50;0.70;;;7.90;99.90;;;;;;5096780;28;20450;-59
2021/04/05 06:16:23;;;;;;;2.45;1.00;;;7.90;99.90;;;;;;5096469;28;20468;-59
2021/04/05 06:19:08;;;;;;;1.40;0.70;;;8.00;99.90;;;;;;5093557;28;20432;-60
2021/04/05 06:21:40;;;;;;;1.97;0.70;;;8.10;99.90;;;;;;5093607;28;20481;-59
2021/04/05 06:24:19;;;;;;;1.80;0.80;;;8.20;99.90;;;;;;5086749;28;20434;-59
2021/04/05 06:26:51;;;;;;;1.83;0.70;;;8.30;99.90;;;;;;5092757;28;20460;-59
2021/04/05 06:29:27;;;;;;;1.63;0.90;;;8.40;99.90;;;;;;5094537;28;20422;-59
2021/04/05 06:32:14;;;;;;;1.60;0.70;;;8.50;99.90;;;;;;5089650;28;20435;-59
2021/04/05 06:35:05;;;;;;;2.00;0.70;;;8.80;99.90;;;;;;5096187;28;20489;-59
2021/04/05 06:37:35;;;;;;;1.42;0.80;;;9.00;99.90;;;;;;5078590;28;20465;-59
2021/04/05 06:40:06;;;;;;;2.60;0.80;;;9.00;99.90;;;;;;5095437;28;20450;-59
2021/04/05 06:43:15;;;;;;;1.30;0.80;;;8.90;99.90;;;;;;5090374;28;20489;-59
2021/04/05 06:45:56;;;;;;;1.20;0.70;;;8.90;99.90;;;;;;5090164;28;20454;-59
2021/04/05 06:48:54;;;;;;;2.70;0.80;;;8.90;99.90;;;;;;5094827;28;20520;-59
2021/04/05 06:51:46;;;;;;;1.30;0.70;;;9.00;99.90;;;;;;5095793;28;20466;-60
2021/04/05 06:54:44;;;;;;;1.77;0.70;;;9.20;99.90;;;;;;5094850;28;20428;-59
2021/04/05 06:57:15;;;;;;;1.23;0.60;;;9.20;99.90;;;;;;5092364;28;20433;-59
2021/04/05 06:59:57;;;;;;;1.92;0.70;;;9.20;99.90;;;;;;5084317;28;20423;-59
2021/04/05 07:03:00;;;;;;;2.10;0.70;;;9.40;99.90;;;;;;5092360;28;20429;-59
2021/04/05 07:06:08;;;;;;;2.25;0.80;;;9.60;99.90;;;;;;5093046;28;20464;-59
2021/04/05 07:08:41;;;;;;;2.00;0.60;;;9.60;99.90;;;;;;5009679;28;20850;-59
2021/04/05 07:11:16;;;;;;;1.00;0.70;;;9.80;99.90;;;;;;5083798;28;20430;-59
2021/04/05 07:13:56;;;;;;;1.40;0.70;;;9.90;99.90;;;;;;5079396;28;20540;-59
2021/04/05 07:16:37;;;;;;;1.30;0.75;;;10.00;99.90;;;;;;5094610;28;20472;-59
2021/04/05 07:19:10;;;;;;;2.15;0.80;;;10.10;99.90;;;;;;5094768;28;20471;-59
2021/04/05 07:21:48;;;;;;;2.78;0.80;;;10.00;99.90;;;;;;5094345;28;20452;-59
2021/04/05 07:24:26;;;;;;;1.97;0.77;;;9.80;99.90;;;;;;5095019;28;20455;-60
2021/04/05 07:27:01;;;;;;;1.30;0.70;;;9.60;99.90;;;;;;5094554;28;20460;-60
2021/04/05 07:29:43;;;;;;;1.33;0.80;;;9.70;99.90;;;;;;5094836;28;20783;-60
2021/04/05 07:32:18;;;;;;;1.70;0.80;;;9.70;99.90;;;;;;5086860;28;20462;-60
2021/04/05 07:35:02;;;;;;;1.05;0.63;;;9.90;99.90;;;;;;5094728;28;20461;-60
2021/04/05 07:37:33;;;;;;;2.30;0.70;;;10.10;99.90;;;;;;5088546;28;20434;-60
2021/04/05 07:40:13;;;;;;;2.30;0.80;;;10.30;99.90;;;;;;5093446;28;20505;-62
2021/04/05 07:42:47;;;;;;;1.80;0.70;;;10.30;99.90;;;;;;5094113;28;20512;-60
2021/04/05 07:45:23;;;;;;;3.00;0.70;;;10.10;99.90;;;;;;5093544;28;20456;-59
2021/04/05 07:47:58;;;;;;;2.63;0.80;;;10.30;99.90;;;;;;5092461;28;20524;-59
2021/04/05 07:50:32;;;;;;;1.38;0.80;;;10.50;99.90;;;;;;5094610;28;20422;-59
2021/04/05 07:53:02;;;;;;;1.60;0.70;;;10.50;99.90;;;;;;5093437;28;20434;-58
2021/04/05 07:55:32;;;;;;;3.60;0.80;;;10.60;99.90;;;;;;5073691;28;20836;-60
2021/04/05 07:58:09;;;;;;;3.20;0.90;;;10.70;99.90;;;;;;5082570;28;20441;-60
2021/04/05 08:00:45;;;;;;;1.60;0.70;;;11.00;99.90;;;;;;5094355;28;20418;-60
2021/04/05 08:03:22;;;;;;;1.50;0.70;;;11.00;99.90;;;;;;5094449;28;20437;-60
2021/04/05 08:05:59;;;;;;;2.13;0.75;;;11.00;99.90;;;;;;5084529;28;20445;-59
2021/04/05 08:08:54;;;;;;;2.70;0.70;;;11.30;99.90;;;;;;5093439;28;20438;-59
2021/04/05 08:11:55;;;;;;;2.67;0.80;;;11.40;99.90;;;;;;5069330;28;20440;-59
2021/04/05 08:14:39;;;;;;;4.68;0.90;;;11.40;99.90;;;;;;5092985;28;20422;-60
2021/04/05 08:17:19;;;;;;;2.00;0.80;;;11.40;99.90;;;;;;5092899;28;20437;-59
2021/04/05 08:19:53;;;;;;;2.78;0.70;;;11.70;99.90;;;;;;5086355;28;20417;-59
2021/04/05 08:22:32;;;;;;;1.80;0.80;;;12.00;99.90;;;;;;5082246;28;20782;-60
2021/04/05 08:25:08;;;;;;;3.13;0.70;;;12.30;99.90;;;;;;5078449;28;20427;-60
2021/04/05 08:27:46;;;;;;;2.50;0.80;;;12.70;99.90;;;;;;5077491;28;20435;-60
2021/04/05 08:30:21;;;;;;;1.40;0.70;;;12.80;99.90;;;;;;5075225;28;20418;-60
2021/04/05 08:33:01;;;;;;;1.02;0.70;;;13.00;99.90;;;;;;5082558;28;20737;-60
2021/04/05 08:35:41;;;;;;;1.80;0.70;;;13.10;99.90;;;;;;5087024;28;20430;-57
2021/04/05 08:38:17;;;;;;;1.25;0.60;;;13.30;99.90;;;;;;5079877;28;20908;-59
2021/04/05 08:40:49;;;;;;;1.55;0.60;;;13.50;99.50;;;;;;5081327;28;20425;-58
2021/04/05 08:43:25;;;;;;;2.95;0.60;;;13.30;98.90;;;;;;5081381;28;20432;-58
2021/04/05 08:45:59;;;;;;;1.50;0.60;;;13.20;98.40;;;;;;5079556;28;20425;-61
2021/04/05 08:48:29;;;;;;;1.40;0.50;;;13.20;96.10;;;;;;5072545;28;21178;-59
2021/04/05 08:50:59;;;;;;;1.15;0.50;;;12.90;94.50;;;;;;5087631;28;20508;-59
2021/04/05 08:53:28;;;;;;;2.25;0.60;;;12.90;93.90;;;;;;5081327;28;20878;-60
2021/04/05 08:55:58;;;;;;;2.58;0.50;;;12.90;92.00;;;;;;5087372;28;20472;-60
2021/04/05 08:58:32;;;;;;;1.70;0.50;;;13.00;91.70;;;;;;5082594;28;20493;-60
2021/04/05 09:01:03;;;;;;;1.70;0.60;;;13.00;91.40;;;;;;5080842;28;20451;-60
2021/04/05 09:03:33;;;;;;;1.70;0.50;;;13.00;90.70;;;;;;5093386;28;20449;-60
2021/04/05 09:06:00;;;;;;;1.40;0.70;;;13.00;90.80;;;;;;5093255;28;20504;-61
2021/04/05 09:08:28;;;;;;;1.40;0.60;;;13.00;91.30;;;;;;5088497;28;20422;-60
2021/04/05 09:10:59;;;;;;;4.10;0.60;;;13.00;91.40;;;;;;5091146;28;20429;-61
2021/04/05 09:13:32;;;;;;;1.77;0.50;;;12.70;91.10;;;;;;5086905;28;20515;-61
2021/04/05 09:16:41;;;;;;;1.05;0.50;;;12.80;91.10;;;;;;5090345;28;20700;-61
2021/04/05 09:19:33;;;;;;;1.50;0.50;;;13.00;91.10;;;;;;5085700;28;20455;-64
2021/04/05 09:22:26;;;;;;;1.90;0.50;;;12.80;91.80;;;;;;5083843;28;20430;-62
2021/04/05 09:25:38;;;;;;;0.90;0.50;;;13.00;91.50;;;;;;5080362;28;20427;-62
2021/04/05 09:28:18;;;;;;;2.33;0.60;;;13.10;91.80;;;;;;5087281;28;20476;-60
2021/04/05 09:31:20;;;;;;;1.55;0.60;;;13.30;91.00;;;;;;5081605;28;20752;-61
2021/04/05 09:34:10;;;;;;;0.90;0.60;;;13.00;90.90;;;;;;5084775;28;20418;-60
2021/04/05 09:37:09;;;;;;;2.60;0.50;;;12.60;91.60;;;;;;5091166;28;20529;-60
2021/04/05 09:40:27;;;;;;;1.80;0.60;;;12.50;91.60;;;;;;5056772;28;20426;-60
2021/04/05 09:43:29;;;;;;;0.90;0.50;;;12.60;90.80;;;;;;5045471;28;20455;-60
2021/04/05 09:46:10;;;;;;;1.13;0.50;;;12.50;91.30;;;;;;5034224;28;20502;-60
2021/04/05 09:48:48;;;;;;;1.37;0.60;;;12.70;90.70;;;;;;5091890;28;20429;-60
2021/04/05 09:51:46;;;;;;;1.80;0.50;;;12.80;90.50;;;;;;5084137;28;20431;-61
2021/04/05 09:54:32;;;;;;;1.40;0.70;;;12.90;90.30;;;;;;5088797;28;20749;-62
2021/04/05 09:57:04;;;;;;;1.45;0.50;;;13.00;87.10;;;;;;5083582;28;20440;-62
2021/04/05 09:59:41;;;;;;;1.70;0.50;;;12.90;86.30;;;;;;5082958;28;20510;-62
2021/04/05 10:02:10;;;;;;;1.92;0.50;;;13.20;86.40;;;;;;5075257;28;20427;-61
2021/04/05 10:04:39;;;;;;;1.23;0.60;;;13.10;83.10;;;;;;5091456;28;20422;-62
2021/04/05 10:07:07;;;;;;;2.60;0.50;;;13.10;82.40;;;;;;5093893;28;20856;-61
2021/04/05 10:09:35;;;;;;;1.48;0.50;;;13.00;81.90;;;;;;5094245;28;20460;-61
2021/04/05 10:12:05;;;;;;;1.53;0.50;;;13.10;82.40;;;;;;5091169;28;20471;-61
2021/04/05 10:14:31;;;;;;;1.15;0.50;;;13.10;82.30;;;;;;5090041;28;20764;-61
2021/04/05 10:16:59;;;;;;;0.93;0.57;;;13.20;78.60;;;;;;5092441;28;20472;-60
2021/04/05 10:19:28;;;;;;;1.40;0.50;;;13.20;81.90;;;;;;5088356;28;20559;-60
2021/04/05 10:22:01;;;;;;;1.42;0.50;;;13.00;79.20;;;;;;5079412;28;20529;-62
2021/04/05 10:24:29;;;;;;;1.50;0.50;;;12.90;77.30;;;;;;5087436;28;20833;-61
2021/04/05 10:26:58;;;;;;;1.10;0.60;;;13.00;78.80;;;;;;5078987;28;20846;-60
2021/04/05 10:29:29;;;;;;;1.88;0.60;;;12.80;76.00;;;;;;5089587;28;20508;-60
2021/04/05 10:32:00;;;;;;;1.40;0.50;;;12.60;77.50;;;;;;5084300;28;20798;-60
2021/04/05 10:34:28;;;;;;;1.10;0.50;;;12.70;80.30;;;;;;5089311;28;20501;-61
2021/04/05 10:36:59;;;;;;;2.57;0.50;;;13.00;78.40;;;;;;5093150;28;20852;-61
2021/04/05 10:39:25;;;;;;;1.40;0.55;;;13.20;74.90;;;;;;5093487;28;20543;-61
2021/04/05 10:41:58;;;;;;;1.35;0.55;;;13.20;74.00;;;;;;5092105;28;20552;-61
2021/04/05 10:44:30;;;;;;;0.90;0.60;;;13.00;75.20;;;;;;5090741;28;20805;-62
2021/04/05 10:47:01;;;;;;;1.00;0.50;;;13.20;74.10;;;;;;5089575;28;20960;-61
2021/04/05 10:49:30;;;;;;;1.58;0.50;;;13.20;72.60;;;;;;5087046;28;20749;-61
2021/04/05 10:52:08;;;;;;;1.63;0.60;;;13.40;70.90;;;;;;5073227;28;20427;-61
2021/04/05 10:54:39;;;;;;;2.50;0.50;;;13.20;69.60;;;;;;5082087;28;20423;-61
2021/04/05 10:57:10;;;;;;;1.42;0.50;;;13.00;70.30;;;;;;5086765;28;20429;-61
2021/04/05 10:59:45;;;;;;;0.70;0.50;;;13.10;70.10;;;;;;5091726;28;20522;-61
2021/04/05 11:02:18;;;;;;;1.00;0.47;;;13.10;69.20;;;;;;5090678;28;20899;-61
2021/04/05 11:04:52;;;;;;;1.00;0.50;;;13.10;70.20;;;;;;5092653;28;20531;-61
2021/04/05 11:07:21;;;;;;;1.20;0.60;;;13.40;67.70;;;;;;5085803;28;20768;-61
2021/04/05 11:09:48;;;;;;;0.80;0.50;;;13.70;69.40;;;;;;5087733;28;20425;-62
2021/04/05 11:12:20;;;;;;;1.00;0.50;;;13.80;66.70;;;;;;5074042;28;20467;-61
2021/04/05 11:14:50;;;;;;;2.45;0.80;;;13.80;66.30;;;;;;5074136;28;20430;-61
2021/04/05 11:17:19;;;;;;;2.55;0.50;;;13.90;66.20;;;;;;5075370;28;20444;-60
2021/04/05 11:19:51;;;;;;;0.80;0.50;;;13.90;66.30;;;;;;5072716;28;20519;-60
2021/04/05 11:22:20;;;;;;;1.50;0.50;;;13.80;65.10;;;;;;5083583;28;20436;-60
2021/04/05 11:24:54;;;;;;;1.30;0.50;;;13.70;67.40;;;;;;5093857;28;20425;-61
2021/04/05 11:27:25;;;;;;;1.00;0.50;;;13.70;68.10;;;;;;5092448;28;20438;-62
2021/04/05 11:29:56;;;;;;;1.75;0.60;;;13.90;68.10;;;;;;5078244;28;20427;-61
2021/04/05 11:32:27;;;;;;;2.20;0.50;;;13.90;72.40;;;;;;5082602;28;20648;-61
2021/04/05 11:34:58;;;;;;;2.38;0.60;;;13.90;74.20;;;;;;5074729;28;20431;-61
2021/04/05 11:37:30;;;;;;;1.50;0.70;;;13.80;74.90;;;;;;5086021;28;20525;-61
2021/04/05 11:40:06;;;;;;;1.15;0.60;;;13.90;75.60;;;;;;5094201;28;20876;-61
2021/04/05 11:42:36;;;;;;;1.98;0.70;;;14.00;76.40;;;;;;5072952;28;20432;-62
2021/04/05 11:45:08;;;;;;;2.28;0.70;;;14.30;76.80;;;;;;5082266;28;20423;-62
2021/04/05 11:47:38;;;;;;;2.70;0.80;;;14.30;77.20;;;;;;5092042;28;20457;-62
2021/04/05 11:50:12;;;;;;;1.50;0.70;;;14.10;78.80;;;;;;5080463;28;20435;-60
2021/04/05 11:52:44;;;;;;;2.92;0.90;;;14.10;80.20;;;;;;5078456;28;20462;-62
2021/04/05 11:55:18;;;;;;;2.13;0.90;;;13.80;80.80;;;;;;5078790;28;20873;-62
2021/04/05 11:57:52;;;;;;;3.20;1.10;;;13.60;82.70;;;;;;5090025;28;20510;-62
2021/04/05 12:00:26;;;;;;;2.55;0.90;;;13.40;82.80;;;;;;5086898;28;20849;-62
2021/04/05 12:03:07;;;;;;;2.67;0.90;;;13.20;84.50;;;;;;5080828;28;20502;-59
2021/04/05 12:05:38;;;;;;;2.67;0.80;;;13.20;85.60;;;;;;5083607;28;20719;-60
2021/04/05 12:08:11;;;;;;;3.17;0.90;;;13.30;85.50;;;;;;5071104;28;20606;-60
2021/04/05 12:10:41;;;;;;;2.40;1.00;;;13.20;85.20;;;;;;5089026;28;20856;-60
2021/04/05 12:13:13;;;;;;;1.70;0.90;;;13.10;86.40;;;;;;5091118;28;20477;-60
2021/04/05 12:15:41;;;;;;;1.55;0.90;;;13.00;87.30;;;;;;5092356;28;20823;-61
2021/04/05 12:18:10;;;;;;;1.52;0.90;;;13.00;87.60;;;;;;5080394;28;20441;-60
2021/04/05 12:20:37;;;;;;;2.53;1.20;;;13.00;88.70;;;;;;5092215;28;20793;-61
2021/04/05 12:23:07;;;;;;;2.72;1.20;;;13.00;89.40;;;;;;5089302;28;20810;-60
2021/04/05 12:25:36;;;;;;;2.83;1.02;;;13.00;90.40;;;;;;5092039;28;20421;-61
2021/04/05 12:28:06;;;;;;;2.80;1.00;;;13.10;90.90;;;;;;5072718;28;20455;-61
2021/04/05 12:30:35;;;;;;;4.20;1.20;;;12.90;91.50;;;;;;5083670;28;20865;-61
2021/04/05 12:33:04;;;;;;;3.83;1.30;;;12.80;92.00;;;;;;5071430;28;20434;-61
2021/04/05 12:35:33;;;;;;;2.78;1.20;;;12.50;93.20;;;;;;5072223;28;20467;-60
2021/04/05 12:38:01;;;;;;;2.70;1.30;;;12.50;93.90;;;;;;5085415;28;20893;-62
2021/04/05 12:40:31;;;;;;;3.65;1.27;;;12.60;94.10;;;;;;5090536;28;20465;-61
2021/04/05 12:43:05;;;;;;;3.55;1.30;;;12.40;94.40;;;;;;5089872;28;20738;-61
2021/04/05 12:45:33;;;;;;;3.05;1.30;;;12.20;94.80;;;;;;5076062;28;20466;-60
2021/04/05 12:48:01;;;;;;;3.55;1.42;;;12.00;95.60;;;;;;5074756;28;20436;-60
2021/04/05 12:50:33;;;;;;;7.57;1.30;;;12.00;96.10;;;;;;5083653;28;20433;-60
2021/04/05 12:53:04;;;;;;;2.40;1.40;;;12.00;96.40;;;;;;5078253;28;20434;-59
2021/04/05 12:55:37;;;;;;;4.00;1.40;;;12.00;97.10;;;;;;5072808;28;20431;-60
2021/04/05 12:58:04;;;;;;;3.80;1.70;;;12.10;97.70;;;;;;5071736;28;20469;-60
2021/04/05 13:00:31;;;;;;;3.92;1.40;;;11.80;98.50;;;;;;5070372;28;20422;-60
2021/04/05 13:03:06;;;;;;;4.10;1.40;;;11.90;98.50;;;;;;5068169;28;20434;-60
2021/04/05 13:05:42;;;;;;;4.18;1.40;;;11.90;98.80;;;;;;5072028;28;20463;-60
2021/04/05 13:08:21;;;;;;;5.13;1.90;;;12.10;98.50;;;;;;5072112;28;20477;-61
2021/04/05 13:10:51;;;;;;;3.22;1.60;;;12.20;98.50;;;;;;5089829;28;20452;-60
2021/04/05 13:13:21;;;;;;;5.70;1.63;;;12.10;98.50;;;;;;5091284;28;20565;-60
2021/04/05 13:15:59;;;;;;;6.32;2.00;;;11.90;98.90;;;;;;5082539;28;20428;-60
2021/04/05 13:18:30;;;;;;;5.80;1.55;;;11.90;98.90;;;;;;5080380;28;20519;-60
2021/04/05 13:21:01;;;;;;;3.90;1.37;;;11.80;99.10;;;;;;5074364;28;20767;-60